Time;durP1;ratioP1;P1;durP2;ratioP2;P2;SDS_P1;SDS_P2;PMS_P1;PMS_P2;Temp;Humidity;BMP_temperature;BMP_pressure;BME280_temperature;BME280_humidity;BME280_pressure;Samples;Min_cycle;Max_cycle;Signal;HPM_P1;HPM_P2
2021/04/23 00:00:42;;;;;;;13.90;4.40;;;;;;;6.44;74.69;101111.23;654246;216;23858;-74
2021/04/23 00:03:14;;;;;;;12.53;4.35;;;;;;;6.52;74.34;101109.48;649038;217;32485;-76
2021/04/23 00:05:42;;;;;;;11.63;3.97;;;;;;;6.49;74.35;101113.55;658867;217;23661;-78
2021/04/23 00:08:11;;;;;;;12.10;4.40;;;;;;;6.55;74.16;101110.10;654711;217;30141;-77
2021/04/23 00:10:38;;;;;;;14.13;4.00;;;;;;;6.64;73.33;101115.63;654806;217;24747;-76
2021/04/23 00:13:06;;;;;;;8.97;4.40;;;;;;;6.64;73.22;101107.41;658749;217;24779;-78
2021/04/23 00:15:34;;;;;;;15.60;4.00;;;;;;;6.62;73.50;101112.31;652625;217;24768;-77
2021/04/23 00:18:02;;;;;;;8.00;4.03;;;;;;;6.76;72.98;101107.92;651137;217;24768;-77
2021/04/23 00:20:30;;;;;;;9.53;3.87;;;;;;;6.81;72.67;101105.03;657089;217;24748;-76
2021/04/23 00:22:58;;;;;;;7.33;3.57;;;;;;;6.80;72.49;101108.08;661688;217;24782;-76
2021/04/23 00:25:26;;;;;;;11.20;3.40;;;;;;;6.71;72.47;101106.55;662057;217;24886;-77
2021/04/23 00:27:55;;;;;;;13.30;4.53;;;;;;;6.67;72.86;101102.50;651269;217;24764;-77
2021/04/23 00:30:24;;;;;;;9.90;3.93;;;;;;;6.66;73.48;101104.72;657284;217;25016;-77
2021/04/23 00:32:52;;;;;;;11.50;4.30;;;;;;;6.42;74.91;101110.97;654501;217;24728;-73
2021/04/23 00:35:20;;;;;;;12.27;4.30;;;;;;;6.48;74.82;101116.60;661002;217;24756;-76
2021/04/23 00:37:48;;;;;;;9.70;3.50;;;;;;;6.46;74.29;101122.30;657289;217;24764;-77
2021/04/23 00:40:18;;;;;;;6.90;3.60;;;;;;;6.37;74.25;101124.19;651969;217;24725;-75
2021/04/23 00:42:45;;;;;;;12.20;3.60;;;;;;;6.28;74.85;101120.88;652266;217;24761;-78
2021/04/23 00:45:14;;;;;;;15.63;4.33;;;;;;;6.15;75.65;101124.67;656437;217;24783;-77
2021/04/23 00:47:44;;;;;;;12.73;5.73;;;;;;;6.14;76.02;101131.23;648985;217;24748;-77
2021/04/23 00:50:14;;;;;;;11.10;4.40;;;;;;;6.25;74.93;101134.81;651891;217;24845;-75
2021/04/23 00:52:42;;;;;;;9.27;4.37;;;;;;;6.14;74.75;101129.47;659742;217;24759;-77
2021/04/23 00:55:11;;;;;;;13.53;4.67;;;;;;;5.79;75.83;101140.62;653877;217;24760;-76
2021/04/23 00:57:39;;;;;;;13.35;4.65;;;;;;;6.06;75.96;101140.75;651333;217;32562;-76
2021/04/23 01:00:08;;;;;;;11.33;4.63;;;;;;;5.76;76.29;101139.49;657014;217;23676;-76
2021/04/23 01:02:36;;;;;;;10.23;5.30;;;;;;;5.79;76.56;101133.34;656850;217;24757;-77
2021/04/23 01:05:05;;;;;;;9.33;4.40;;;;;;;5.67;76.86;101131.03;646342;222;24856;-77
2021/04/23 01:07:32;;;;;;;8.40;5.30;;;;;;;5.60;77.41;101136.16;639850;222;24810;-76
2021/04/23 01:10:00;;;;;;;10.13;5.67;;;;;;;5.51;77.47;101138.02;660747;217;24781;-77
2021/04/23 01:12:28;;;;;;;12.73;4.23;;;;;;;5.39;77.84;101142.59;639880;221;24815;-77
2021/04/23 01:14:56;;;;;;;20.68;5.67;;;;;;;5.59;77.77;101143.53;649885;217;43286;-77
2021/04/23 01:17:24;;;;;;;19.00;5.07;;;;;;;5.38;77.84;101144.34;656976;218;23653;-77
2021/04/23 01:19:52;;;;;;;13.37;4.63;;;;;;;5.27;78.25;101147.53;651096;218;24769;-74
2021/04/23 01:22:20;;;;;;;16.40;5.22;;;;;;;5.42;78.29;101147.56;641260;221;32577;-77
2021/04/23 01:24:48;;;;;;;14.35;5.30;;;;;;;5.38;78.18;101145.63;635616;221;43498;-77
2021/04/23 01:27:16;;;;;;;10.70;5.00;;;;;;;5.25;78.98;101151.13;642146;221;25829;-77
2021/04/23 01:29:44;;;;;;;10.00;4.73;;;;;;;5.14;79.14;101150.44;642805;221;24868;-77
2021/04/23 01:32:12;;;;;;;10.53;4.47;;;;;;;4.85;80.08;101149.95;651322;219;24780;-77
2021/04/23 01:34:41;;;;;;;9.53;4.27;;;;;;;5.09;79.66;101153.75;650963;217;24774;-74
2021/04/23 01:37:08;;;;;;;14.05;4.90;;;;;;;5.32;78.70;101149.37;646102;217;32802;-74
2021/04/23 01:39:36;;;;;;;14.83;5.67;;;;;;;5.29;79.11;101153.43;655939;217;23650;-73
2021/04/23 01:42:04;;;;;;;14.00;4.30;;;;;;;5.27;79.04;101155.27;646780;218;24754;-76
2021/04/23 01:44:32;;;;;;;14.30;5.40;;;;;;;5.31;78.51;101155.45;641945;221;24784;-76
2021/04/23 01:47:00;;;;;;;12.23;4.70;;;;;;;5.38;78.25;101156.41;654663;217;24787;-75
2021/04/23 01:49:28;;;;;;;10.07;3.63;;;;;;;5.20;79.61;101159.56;653416;217;24735;-76
2021/04/23 01:51:56;;;;;;;9.70;4.50;;;;;;;5.18;78.74;101164.81;642721;221;24810;-76
2021/04/23 01:54:24;;;;;;;9.23;3.93;;;;;;;5.28;78.61;101168.53;650558;217;24740;-75
2021/04/23 01:56:52;;;;;;;12.33;5.50;;;;;;;5.40;78.12;101170.05;650523;218;24730;-75
2021/04/23 01:59:20;;;;;;;15.40;4.93;;;;;;;5.48;77.51;101169.13;647739;217;30262;-77
2021/04/23 02:01:48;;;;;;;13.30;4.23;;;;;;;5.47;77.76;101173.92;654337;217;24772;-77
2021/04/23 02:04:16;;;;;;;12.73;4.40;;;;;;;5.50;77.46;101175.05;652102;217;24765;-74
2021/04/23 02:06:44;;;;;;;16.40;5.03;;;;;;;5.45;78.15;101171.89;641608;222;24774;-77
2021/04/23 02:09:12;;;;;;;10.30;4.57;;;;;;;5.38;77.58;101179.17;649008;218;24761;-77
2021/04/23 02:11:40;;;;;;;11.77;5.50;;;;;;;5.15;78.71;101185.62;643513;222;24715;-75
2021/04/23 02:14:08;;;;;;;14.50;5.23;;;;;;;5.26;79.10;101185.84;636960;222;24831;-77
2021/04/23 02:16:36;;;;;;;7.60;4.80;;;;;;;5.26;78.38;101180.69;651818;217;24740;-78
2021/04/23 02:19:04;;;;;;;9.07;4.03;;;;;;;5.33;77.91;101178.12;654334;217;25808;-77
2021/04/23 02:21:32;;;;;;;14.53;4.67;;;;;;;5.42;78.25;101180.64;646438;222;24878;-77
2021/04/23 02:24:00;;;;;;;12.43;4.50;;;;;;;5.44;77.34;101174.93;641331;220;24882;-78
2021/04/23 02:26:28;;;;;;;8.97;4.63;;;;;;;5.36;77.87;101176.67;641389;222;24783;-77
2021/04/23 02:28:56;;;;;;;7.53;4.27;;;;;;;5.35;77.34;101174.19;646321;221;24810;-76
2021/04/23 02:31:24;;;;;;;9.73;4.40;;;;;;;5.41;77.71;101174.28;641094;221;24781;-77
2021/04/23 02:33:52;;;;;;;9.87;4.33;;;;;;;5.43;77.54;101173.73;641878;221;24789;-75
2021/04/23 02:36:20;;;;;;;9.07;4.30;;;;;;;5.22;77.55;101174.05;644595;221;24800;-77
2021/04/23 02:38:48;;;;;;;9.63;4.50;;;;;;;5.29;77.23;101179.22;646305;220;24813;-77
2021/04/23 02:41:16;;;;;;;17.63;5.17;;;;;;;5.13;78.23;101175.85;647138;221;24764;-77
2021/04/23 02:43:44;;;;;;;7.93;4.60;;;;;;;5.27;78.00;101176.36;636917;222;24821;-77
2021/04/23 02:46:12;;;;;;;11.50;5.30;;;;;;;5.13;78.40;101184.05;649630;220;30099;-76
2021/04/23 02:48:40;;;;;;;7.80;4.77;;;;;;;5.10;78.36;101181.65;651444;217;24755;-73
2021/04/23 02:51:08;;;;;;;11.90;4.93;;;;;;;5.00;78.37;101187.77;640505;222;26904;-75
2021/04/23 02:53:36;;;;;;;10.57;4.67;;;;;;;4.92;79.09;101198.48;641355;221;24825;-77
2021/04/23 02:56:05;;;;;;;11.10;5.07;;;;;;;4.97;78.61;101195.22;641872;221;24771;-76
2021/04/23 02:58:33;;;;;;;7.13;4.10;;;;;;;4.93;78.37;101199.34;643372;221;24815;-76
2021/04/23 03:01:01;;;;;;;11.40;4.80;;;;;;;4.91;78.24;101210.17;651411;218;24772;-77
2021/04/23 03:03:28;;;;;;;9.33;4.70;;;;;;;4.73;79.06;101202.54;648520;218;25115;-77
2021/04/23 03:05:57;;;;;;;10.33;4.60;;;;;;;4.61;78.79;101203.66;653762;218;24748;-77
2021/04/23 03:08:25;;;;;;;13.37;5.00;;;;;;;4.56;79.48;101205.66;655134;218;24761;-76
2021/04/23 03:10:53;;;;;;;10.83;4.87;;;;;;;4.46;79.77;101218.19;646501;222;24822;-77
2021/04/23 03:13:21;;;;;;;12.03;5.50;;;;;;;4.38;80.67;101216.48;646212;221;24808;-77
2021/04/23 03:15:49;;;;;;;9.73;5.20;;;;;;;4.27;80.80;101217.50;647480;218;24775;-75
2021/04/23 03:18:17;;;;;;;12.20;5.20;;;;;;;4.47;80.37;101218.09;650088;218;24779;-77
2021/04/23 03:20:45;;;;;;;10.93;5.30;;;;;;;4.59;79.72;101211.92;640614;222;24852;-77
2021/04/23 03:23:13;;;;;;;12.18;5.40;;;;;;;4.97;78.84;101209.86;647879;219;32522;-77
2021/04/23 03:25:40;;;;;;;9.83;5.37;;;;;;;4.74;79.31;101204.66;642558;222;23940;-75
2021/04/23 03:28:08;;;;;;;15.30;5.43;;;;;;;4.66;79.23;101214.11;640049;222;24816;-76
2021/04/23 03:30:37;;;;;;;18.47;4.93;;;;;;;4.52;79.83;101216.59;648692;221;24819;-76
2021/04/23 03:33:05;;;;;;;11.68;5.80;;;;;;;4.98;78.38;101207.64;640233;222;32714;-77
2021/04/23 03:35:33;;;;;;;17.23;5.33;;;;;;;4.50;79.08;101208.09;649726;218;23659;-75
2021/04/23 03:38:01;;;;;;;11.70;5.40;;;;;;;4.39;79.72;101206.55;656888;217;24823;-77
2021/04/23 03:40:29;;;;;;;8.73;5.03;;;;;;;4.22;80.06;101218.17;641510;221;26857;-75
2021/04/23 03:42:56;;;;;;;11.03;4.80;;;;;;;4.11;81.48;101217.01;650443;217;24960;-76
2021/04/23 03:45:24;;;;;;;12.23;6.35;;;;;;;4.35;80.80;101220.03;647741;219;32616;-78
2021/04/23 03:47:52;;;;;;;11.47;5.30;;;;;;;4.23;80.82;101221.16;652828;218;25728;-76
2021/04/23 03:50:21;;;;;;;14.43;6.23;;;;;;;4.16;81.68;101220.16;646330;218;24755;-78
2021/04/23 03:52:49;;;;;;;17.60;5.83;;;;;;;4.18;81.11;101217.05;655477;219;26943;-77
2021/04/23 03:55:17;;;;;;;11.57;5.37;;;;;;;4.06;81.45;101218.13;640007;221;24839;-76
2021/04/23 03:57:45;;;;;;;15.97;5.53;;;;;;;3.95;81.52;101219.16;653389;217;24781;-77
2021/04/23 04:00:14;;;;;;;13.47;5.57;;;;;;;3.98;82.39;101223.69;651839;218;24773;-77
2021/04/23 04:02:42;;;;;;;14.83;5.50;;;;;;;4.01;82.42;101227.84;648121;221;24770;-78
2021/04/23 04:05:12;;;;;;;17.13;6.47;;;;;;;4.11;82.62;101223.44;644936;221;24774;-77
2021/04/23 04:07:40;;;;;;;15.15;6.65;;;;;;;4.46;80.96;101223.33;644804;221;32427;-73
2021/04/23 04:10:09;;;;;;;14.23;7.27;;;;;;;4.34;80.84;101219.66;641503;222;24770;-74
2021/04/23 04:12:37;;;;;;;13.43;5.93;;;;;;;4.17;81.56;101211.53;641246;221;24818;-77
2021/04/23 04:15:07;;;;;;;14.83;6.30;;;;;;;4.14;81.57;101221.98;643915;222;24781;-77
2021/04/23 04:17:34;;;;;;;15.03;6.97;;;;;;;4.40;80.41;101223.67;642294;222;24796;-76
2021/04/23 04:20:03;;;;;;;13.27;6.20;;;;;;;4.32;80.93;101227.09;641168;221;24826;-77
2021/04/23 04:22:31;;;;;;;13.60;5.77;;;;;;;4.39;80.43;101232.31;644402;222;24833;-77
2021/04/23 04:24:59;;;;;;;10.50;6.33;;;;;;;4.33;80.09;101234.73;641994;221;24835;-77
2021/04/23 04:27:27;;;;;;;12.73;6.17;;;;;;;4.39;79.97;101227.98;645952;220;24839;-74
2021/04/23 04:29:55;;;;;;;13.70;6.30;;;;;;;4.32;80.38;101233.06;642142;222;24823;-77
2021/04/23 04:32:22;;;;;;;13.47;5.93;;;;;;;4.35;80.32;101234.65;638776;222;24803;-76
2021/04/23 04:34:50;;;;;;;17.33;7.47;;;;;;;4.42;80.18;101238.13;644812;222;24824;-75
2021/04/23 04:37:18;;;;;;;10.87;6.23;;;;;;;4.29;81.39;101240.96;648184;221;26981;-75
2021/04/23 04:39:46;;;;;;;13.70;6.00;;;;;;;4.46;80.54;101240.91;637188;222;24820;-77
2021/04/23 04:42:14;;;;;;;12.47;6.20;;;;;;;4.38;80.96;101240.95;646985;221;29026;-76
2021/04/23 04:44:42;;;;;;;10.87;6.57;;;;;;;4.51;80.26;101253.56;641899;221;24787;-76
2021/04/23 04:47:10;;;;;;;13.03;7.23;;;;;;;4.69;80.05;101256.91;647176;219;24787;-77
2021/04/23 04:49:38;;;;;;;13.17;7.10;;;;;;;4.84;79.63;101257.83;631755;225;24833;-77
2021/04/23 04:52:06;;;;;;;17.83;6.50;;;;;;;4.93;79.20;101250.90;640747;221;24784;-77
2021/04/23 04:54:34;;;;;;;13.30;6.67;;;;;;;4.94;78.72;101259.00;642646;221;24767;-78
2021/04/23 04:57:02;;;;;;;11.47;7.53;;;;;;;5.10;78.79;101254.67;646717;221;26957;-74
2021/04/23 04:59:30;;;;;;;14.30;7.13;;;;;;;5.40;78.04;101257.29;642151;221;24790;-73
2021/04/23 05:01:58;;;;;;;17.10;7.10;;;;;;;5.46;77.65;101256.10;656869;217;24782;-73
2021/04/23 05:04:26;;;;;;;13.43;7.95;;;;;;;5.82;76.98;101250.14;648692;217;32573;-76
2021/04/23 05:06:54;;;;;;;13.03;7.37;;;;;;;5.76;76.52;101254.34;644956;221;23697;-76
2021/04/23 05:09:23;;;;;;;16.87;8.40;;;;;;;5.69;77.70;101253.52;648940;217;24778;-77
2021/04/23 05:11:51;;;;;;;17.40;8.23;;;;;;;5.67;77.85;101260.05;657904;217;24810;-76
2021/04/23 05:14:19;;;;;;;11.80;7.43;;;;;;;5.58;78.30;101263.98;653207;217;24808;-76
2021/04/23 05:16:47;;;;;;;17.40;7.07;;;;;;;5.68;78.13;101272.04;640431;221;24796;-76
2021/04/23 05:19:15;;;;;;;12.10;7.00;;;;;;;5.78;78.47;101274.94;643245;221;24825;-76
2021/04/23 05:21:43;;;;;;;12.40;6.20;;;;;;;5.79;78.98;101276.59;653731;219;24789;-75
2021/04/23 05:24:11;;;;;;;12.80;7.03;;;;;;;5.86;79.78;101278.72;657081;217;24753;-76
2021/04/23 05:26:39;;;;;;;19.17;7.20;;;;;;;6.04;79.17;101280.72;660563;217;24752;-76
2021/04/23 05:29:07;;;;;;;14.20;6.70;;;;;;;6.10;79.11;101282.13;639028;221;32777;-76
2021/04/23 05:31:35;;;;;;;14.63;6.13;;;;;;;6.24;78.64;101278.27;639362;221;23744;-76
2021/04/23 05:34:03;;;;;;;15.63;7.20;;;;;;;6.42;78.42;101284.91;644144;221;26017;-75
2021/04/23 05:36:31;;;;;;;10.27;6.30;;;;;;;6.40;77.62;101283.34;644657;221;25849;-77
2021/04/23 05:38:59;;;;;;;18.63;6.53;;;;;;;6.46;77.64;101282.51;631052;226;24846;-76
2021/04/23 05:41:27;;;;;;;9.63;6.10;;;;;;;6.54;77.19;101289.34;638736;221;28014;-76
2021/04/23 05:43:54;;;;;;;15.77;5.60;;;;;;;6.59;77.69;101283.06;645761;221;24806;-76
2021/04/23 05:46:22;;;;;;;20.83;6.60;;;;;;;6.76;77.38;101286.30;643402;221;24808;-75
2021/04/23 05:48:50;;;;;;;10.80;5.83;;;;;;;6.88;76.44;101289.03;640800;221;24865;-73
2021/04/23 05:51:18;;;;;;;17.30;6.80;;;;;;;7.20;77.03;101285.29;650140;217;32536;-76
2021/04/23 05:53:46;;;;;;;15.08;6.78;;;;;;;7.32;74.66;101279.34;654587;217;32610;-76
2021/04/23 05:56:14;;;;;;;14.65;7.10;;;;;;;7.38;73.71;101272.93;644772;217;32632;-76
2021/04/23 05:58:42;;;;;;;14.87;6.70;;;;;;;7.48;73.28;101276.59;650436;216;23715;-76
2021/04/23 06:01:10;;;;;;;21.43;5.33;;;;;;;7.39;73.17;101272.00;642817;221;24780;-77
2021/04/23 06:03:38;;;;;;;11.03;5.10;;;;;;;7.47;72.94;101265.88;659918;216;24774;-77
2021/04/23 06:06:06;;;;;;;12.87;5.00;;;;;;;7.55;71.82;101273.13;653403;217;24764;-76
2021/04/23 06:08:34;;;;;;;13.63;6.30;;;;;;;7.64;72.87;101277.72;642690;220;24810;-76
2021/04/23 06:11:02;;;;;;;12.13;4.93;;;;;;;7.71;72.52;101273.32;643597;221;24793;-76
2021/04/23 06:13:30;;;;;;;14.53;6.20;;;;;;;7.74;71.21;101270.56;646508;220;24804;-75
2021/04/23 06:15:58;;;;;;;11.30;5.60;;;;;;;7.83;71.59;101273.45;642753;221;24860;-76
2021/04/23 06:18:26;;;;;;;12.00;6.23;;;;;;;8.04;72.32;101277.22;642656;221;24799;-76
2021/04/23 06:20:54;;;;;;;18.30;6.30;;;;;;;8.21;71.82;101279.97;640447;221;24775;-76
2021/04/23 06:23:22;;;;;;;13.27;5.83;;;;;;;8.58;71.59;101280.42;651245;218;24812;-76
2021/04/23 06:25:51;;;;;;;11.60;5.80;;;;;;;8.59;69.44;101273.51;646923;218;24822;-76
2021/04/23 06:28:18;;;;;;;12.17;6.30;;;;;;;8.54;69.86;101274.27;646527;219;24794;-77
2021/04/23 06:30:47;;;;;;;10.10;5.53;;;;;;;8.40;69.09;101269.20;653981;217;24743;-76
2021/04/23 06:33:17;;;;;;;11.53;5.57;;;;;;;8.51;69.42;101265.42;640064;221;24813;-77
2021/04/23 06:35:42;;;;;;;13.00;6.00;;;;;;;8.45;70.86;101277.05;643259;222;24865;-76
2021/04/23 06:38:10;;;;;;;22.67;6.30;;;;;;;8.53;70.40;101275.21;643443;221;24810;-76
2021/04/23 06:40:39;;;;;;;15.83;5.80;;;;;;;8.71;69.44;101277.81;639064;221;24800;-74
2021/04/23 06:43:07;;;;;;;12.40;6.93;;;;;;;8.73;68.74;101281.16;644776;221;24793;-76
2021/04/23 06:45:35;;;;;;;22.80;5.83;;;;;;;8.63;68.03;101276.24;642393;221;24939;-75
2021/04/23 06:48:03;;;;;;;14.90;7.40;;;;;;;8.89;69.85;101284.33;640607;222;24809;-76
2021/04/23 06:50:31;;;;;;;9.53;6.03;;;;;;;8.88;68.52;101278.78;642052;222;24842;-76
2021/04/23 06:52:59;;;;;;;14.90;5.87;;;;;;;8.87;67.76;101287.51;656145;217;24760;-76
2021/04/23 06:55:27;;;;;;;15.47;5.33;;;;;;;9.03;67.85;101286.42;640925;221;23814;-76
2021/04/23 06:57:55;;;;;;;12.70;6.15;;;;;;;9.02;67.34;101291.26;635401;221;32716;-76
2021/04/23 07:00:23;;;;;;;12.60;5.70;;;;;;;9.17;67.88;101280.61;644624;222;23669;-75
2021/04/23 07:02:52;;;;;;;14.97;5.77;;;;;;;9.33;67.70;101288.13;640934;222;24821;-76
2021/04/23 07:05:19;;;;;;;9.40;5.50;;;;;;;9.43;68.11;101272.25;634933;222;25072;-76
2021/04/23 07:07:47;;;;;;;14.13;5.90;;;;;;;9.73;67.59;101285.23;636485;222;27973;-75
2021/04/23 07:10:15;;;;;;;18.13;6.97;;;;;;;9.92;65.96;101272.98;644273;221;24762;-76
2021/04/23 07:12:43;;;;;;;17.15;6.80;;;;;;;10.10;65.68;101272.42;640645;221;32741;-74
2021/04/23 07:15:14;;;;;;;11.30;5.50;;;;;;;10.09;65.78;101279.04;647615;220;23664;-75
2021/04/23 07:17:40;;;;;;;16.37;6.40;;;;;;;10.15;65.49;101280.37;644203;220;24803;-74
2021/04/23 07:20:09;;;;;;;16.27;5.83;;;;;;;10.02;64.76;101272.19;639379;221;24785;-76
2021/04/23 07:22:37;;;;;;;15.30;6.20;;;;;;;10.16;65.55;101275.52;643960;221;25874;-76
2021/04/23 07:25:06;;;;;;;19.70;7.70;;;;;;;10.02;65.49;101276.09;641575;221;24755;-77
2021/04/23 07:27:36;;;;;;;23.00;6.60;;;;;;;10.32;65.24;101283.36;650864;217;24744;-75
2021/04/23 07:30:03;;;;;;;18.27;5.90;;;;;;;10.34;65.79;101278.88;644203;221;24832;-77
2021/04/23 07:32:31;;;;;;;19.63;6.43;;;;;;;10.69;64.70;101276.13;644178;220;23840;-76
2021/04/23 07:35:00;;;;;;;26.23;7.00;;;;;;;11.00;64.58;101278.95;645861;221;24815;-74
2021/04/23 07:37:28;;;;;;;13.37;6.40;;;;;;;11.13;64.30;101274.91;649659;218;24772;-74
2021/04/23 07:39:56;;;;;;;17.63;7.27;;;;;;;10.88;62.22;101270.81;645752;218;24819;-74
2021/04/23 07:42:24;;;;;;;10.67;6.80;;;;;;;11.04;63.57;101279.06;644452;221;24804;-75
2021/04/23 07:44:55;;;;;;;13.03;6.03;;;;;;;11.47;62.89;101271.23;646658;221;24792;-75
2021/04/23 07:47:20;;;;;;;12.03;6.13;;;;;;;11.52;62.76;101271.67;648265;221;24760;-76
2021/04/23 07:49:48;;;;;;;12.87;6.77;;;;;;;11.54;63.46;101269.79;653036;217;24777;-77
2021/04/23 07:52:16;;;;;;;15.83;6.00;;;;;;;11.60;60.84;101260.63;641310;222;24809;-77
2021/04/23 07:54:44;;;;;;;12.53;6.07;;;;;;;11.55;60.34;101258.89;646276;219;24772;-77
2021/04/23 07:57:12;;;;;;;15.97;6.90;;;;;;;11.94;61.60;101265.69;652303;217;24754;-77
2021/04/23 07:59:39;;;;;;;12.20;5.70;;;;;;;11.89;59.64;101260.39;648358;222;24828;-74
2021/04/23 08:02:08;;;;;;;18.23;7.53;;;;;;;11.98;59.36;101250.16;645594;217;32903;-77
2021/04/23 08:04:38;;;;;;;18.77;6.23;;;;;;;11.78;58.34;101252.59;641466;221;24847;-77
2021/04/23 08:07:05;;;;;;;14.10;7.33;;;;;;;11.82;58.93;101259.26;646889;218;24991;-77
2021/04/23 08:09:31;;;;;;;16.20;6.70;;;;;;;11.82;59.03;101253.19;640599;222;24823;-77
2021/04/23 08:11:59;;;;;;;21.30;7.00;;;;;;;11.93;60.65;101248.39;636946;222;24849;-77
2021/04/23 08:14:27;;;;;;;16.90;6.20;;;;;;;12.16;59.37;101252.03;641533;221;24827;-76
2021/04/23 08:16:55;;;;;;;16.17;6.13;;;;;;;12.24;57.52;101242.72;640848;221;24793;-77
2021/04/23 08:19:23;;;;;;;12.17;6.40;;;;;;;12.58;59.70;101248.50;652241;217;24791;-76
2021/04/23 08:21:51;;;;;;;16.60;6.00;;;;;;;12.53;57.38;101237.16;658000;215;24905;-77
2021/04/23 08:24:19;;;;;;;19.13;6.87;;;;;;;12.61;58.40;101236.00;653165;218;24796;-75
2021/04/23 08:26:47;;;;;;;11.37;5.97;;;;;;;12.73;57.09;101228.41;648485;218;26962;-75
2021/04/23 08:29:15;;;;;;;24.30;7.77;;;;;;;12.79;57.66;101226.56;655527;216;24781;-73
2021/04/23 08:31:43;;;;;;;13.40;6.63;;;;;;;13.22;56.90;101222.79;641810;221;25846;-73
2021/04/23 08:34:11;;;;;;;15.90;7.30;;;;;;;13.26;55.78;101217.66;649044;218;27972;-74
2021/04/23 08:36:40;;;;;;;15.60;7.30;;;;;;;13.27;58.02;101224.53;647062;221;27955;-74
2021/04/23 08:39:08;;;;;;;22.53;6.40;;;;;;;12.85;57.72;101214.77;652511;217;25038;-74
2021/04/23 08:41:36;;;;;;;15.30;6.50;;;;;;;12.86;56.55;101211.20;651670;219;24744;-73
2021/04/23 08:44:04;;;;;;;18.17;6.70;;;;;;;12.74;56.33;101221.41;653777;218;24790;-74
2021/04/23 08:46:33;;;;;;;19.30;6.97;;;;;;;12.74;55.34;101224.02;639324;222;24826;-75
2021/04/23 08:49:01;;;;;;;15.30;6.30;;;;;;;13.06;53.94;101208.94;653579;217;24737;-74
2021/04/23 08:51:29;;;;;;;19.20;7.27;;;;;;;13.35;55.22;101205.05;641160;221;25191;-74
2021/04/23 08:53:57;;;;;;;18.93;7.80;;;;;;;13.29;55.91;101216.55;633438;221;32841;-76
2021/04/23 08:56:25;;;;;;;23.90;7.30;;;;;;;13.18;55.44;101213.58;648640;218;24790;-75
2021/04/23 08:58:52;;;;;;;12.17;6.10;;;;;;;13.23;54.18;101209.24;651370;218;24825;-75
2021/04/23 09:01:20;;;;;;;11.23;6.10;;;;;;;13.61;52.71;101202.69;640675;218;24848;-74
2021/04/23 09:03:48;;;;;;;12.90;6.93;;;;;;;13.71;54.47;101204.47;640904;222;27980;-73
2021/04/23 09:06:16;;;;;;;15.40;6.67;;;;;;;14.05;54.99;101202.98;654413;217;23793;-74
2021/04/23 09:08:53;;;;;;;12.80;6.13;;;;;;;13.81;53.83;101202.66;638909;222;24863;-72
2021/04/23 09:13:16;;;;;;;13.10;6.03;;;;;;;14.32;51.83;101187.79;650358;217;30761;-74
2021/04/23 09:15:44;;;;;;;14.50;6.30;;;;;;;14.09;53.66;101183.44;649535;220;24921;-73
2021/04/23 09:18:12;;;;;;;16.40;7.17;;;;;;;14.08;52.08;101180.97;640516;221;30092;-75
2021/04/23 09:20:40;;;;;;;12.67;6.40;;;;;;;14.13;50.60;101183.97;648401;217;24920;-74
2021/04/23 09:23:11;;;;;;;17.77;7.20;;;;;;;14.20;53.84;101183.71;634253;221;32744;-74
2021/04/23 09:25:45;;;;;;;11.83;7.50;;;;;;;14.28;50.58;101185.62;642802;218;32650;-75
2021/04/23 09:28:13;;;;;;;22.13;7.50;;;;;;;14.32;51.94;101178.63;644953;218;32697;-73
2021/04/23 09:30:42;;;;;;;19.37;6.60;;;;;;;14.00;50.80;101182.16;640879;221;25926;-74
2021/04/23 09:33:23;;;;;;;15.05;7.35;;;;;;;14.72;51.44;101187.45;640361;218;32791;-72
2021/04/23 09:35:51;;;;;;;36.67;7.07;;;;;;;14.82;50.52;101184.78;648252;218;23715;-74
2021/04/23 09:38:19;;;;;;;17.17;8.43;;;;;;;14.75;51.11;101180.61;651846;218;23807;-74
2021/04/23 09:40:47;;;;;;;13.47;7.20;;;;;;;14.39;49.85;101175.78;647131;218;24778;-74
2021/04/23 09:43:15;;;;;;;12.07;7.43;;;;;;;14.60;52.03;101182.09;655251;217;24854;-76
2021/04/23 09:45:49;;;;;;;18.33;8.17;;;;;;;14.50;50.16;101177.42;638946;221;24805;-75
2021/04/23 09:48:21;;;;;;;10.47;6.70;;;;;;;14.84;49.87;101182.34;645702;222;24878;-71
2021/04/23 09:50:50;;;;;;;22.07;6.93;;;;;;;14.82;49.51;101173.00;638028;222;25042;-75
2021/04/23 09:53:17;;;;;;;12.70;6.27;;;;;;;15.11;47.93;101170.15;644003;221;24831;-75
2021/04/23 09:55:45;;;;;;;12.57;6.03;;;;;;;15.03;49.73;101171.38;638061;222;24828;-74
2021/04/23 09:58:13;;;;;;;16.85;7.03;;;;;;;15.40;48.40;101161.53;645664;217;32576;-75
2021/04/23 10:00:41;;;;;;;10.50;6.10;;;;;;;15.55;48.79;101167.04;655779;217;23679;-75
2021/04/23 10:03:09;;;;;;;10.30;6.67;;;;;;;15.31;49.43;101174.23;654317;217;24798;-73
2021/04/23 10:05:37;;;;;;;13.47;6.47;;;;;;;15.01;49.65;101164.16;654238;217;24817;-74
2021/04/23 10:08:06;;;;;;;13.70;6.60;;;;;;;14.95;48.92;101164.77;650692;217;23796;-74
2021/04/23 10:10:34;;;;;;;14.20;7.13;;;;;;;14.69;49.63;101167.30;647908;217;24773;-74
2021/04/23 10:13:03;;;;;;;12.80;6.70;;;;;;;15.04;47.34;101155.50;653278;217;23800;-74
2021/04/23 10:15:31;;;;;;;12.93;6.87;;;;;;;15.52;48.35;101155.55;655749;217;24778;-72
2021/04/23 10:17:59;;;;;;;10.00;6.37;;;;;;;15.31;47.76;101163.75;652162;217;24784;-73
2021/04/23 10:20:27;;;;;;;13.63;6.77;;;;;;;15.20;48.51;101160.08;655442;217;24776;-73
2021/04/23 10:22:55;;;;;;;16.00;6.10;;;;;;;15.55;48.59;101156.55;657186;216;27059;-72
2021/04/23 10:25:23;;;;;;;13.27;7.27;;;;;;;16.03;48.12;101156.02;660628;216;25301;-72
2021/04/23 10:27:50;;;;;;;15.45;7.60;;;;;;;16.00;47.80;101153.71;650106;217;32584;-75
2021/04/23 10:30:20;;;;;;;13.85;7.00;;;;;;;15.89;45.17;101151.35;653567;217;32688;-74
2021/04/23 10:32:48;;;;;;;11.40;7.27;;;;;;;15.58;46.93;101145.75;653807;217;23668;-75
2021/04/23 10:35:16;;;;;;;14.30;7.13;;;;;;;15.79;46.09;101149.36;652440;217;24770;-74
2021/04/23 10:37:44;;;;;;;15.63;7.80;;;;;;;15.77;48.11;101150.50;649542;217;25844;-74
2021/04/23 10:40:13;;;;;;;16.27;7.03;;;;;;;15.65;46.83;101138.13;648601;217;25108;-76
2021/04/23 10:42:48;;;;;;;14.35;7.50;;;;;;;16.04;46.51;101139.77;653734;217;32595;-74
2021/04/23 10:45:21;;;;;;;11.80;6.73;;;;;;;15.80;45.57;101124.77;646736;217;32612;-73
2021/04/23 10:47:48;;;;;;;16.75;7.00;;;;;;;15.71;45.39;101127.00;647501;217;32535;-76
2021/04/23 10:50:16;;;;;;;16.15;6.65;;;;;;;15.37;44.93;101127.77;646521;217;32568;-75
2021/04/23 10:53:00;;;;;;;10.57;6.07;;;;;;;15.59;46.31;101133.00;658974;217;23679;-75
2021/04/23 10:55:38;;;;;;;17.70;6.53;;;;;;;16.07;47.98;101125.05;655812;217;24780;-75
2021/04/23 10:58:06;;;;;;;12.70;5.70;;;;;;;15.88;44.35;101116.09;653997;217;24773;-73
2021/04/23 11:00:35;;;;;;;11.40;5.40;;;;;;;16.19;44.37;101115.09;654492;217;24014;-75
2021/04/23 11:03:13;;;;;;;14.37;6.20;;;;;;;16.20;45.68;101123.30;652858;217;23801;-75
2021/04/23 11:05:41;;;;;;;12.20;6.00;;;;;;;15.68;43.90;101112.89;655566;217;24739;-75
2021/04/23 11:08:09;;;;;;;8.30;6.40;;;;;;;16.06;44.20;101116.03;651391;217;24718;-74
2021/04/23 11:10:59;;;;;;;11.40;7.10;;;;;;;16.47;44.98;101112.54;651142;217;23787;-75
2021/04/23 11:13:27;;;;;;;20.03;7.37;;;;;;;16.25;44.79;101117.06;653400;217;23952;-75
2021/04/23 11:16:33;;;;;;;13.57;6.40;;;;;;;16.74;46.25;101114.55;648762;217;25187;-74
2021/04/23 11:19:08;;;;;;;15.72;6.97;;;;;;;16.75;45.13;101107.84;646411;217;32549;-75
2021/04/23 11:21:38;;;;;;;17.33;7.30;;;;;;;16.62;47.86;101113.55;651172;217;23658;-74
2021/04/23 11:24:09;;;;;;;15.40;7.90;;;;;;;16.43;46.57;101113.00;656241;217;23787;-75
2021/04/23 11:27:04;;;;;;;8.80;5.90;;;;;;;16.54;48.88;101120.09;651048;217;24772;-74
2021/04/23 11:29:32;;;;;;;12.47;6.37;;;;;;;16.76;46.36;101116.55;656707;217;24788;-75
2021/04/23 11:32:09;;;;;;;12.70;6.57;;;;;;;16.83;44.34;101117.52;659069;217;23865;-74